createdAt,value
2022-10-16T00:13:06.534Z,12.31
2022-10-16T00:18:08.326Z,12.32
2022-10-16T00:23:11.643Z,12.32
2022-10-16T00:28:13.707Z,12.30
2022-10-16T00:33:15.593Z,12.29
2022-10-16T00:38:18.276Z,12.26
2022-10-16T00:43:39.525Z,12.24
2022-10-16T00:48:48.733Z,12.22
2022-10-16T00:54:09.263Z,12.21
2022-10-16T00:59:27.343Z,12.20
2022-10-16T01:04:35.588Z,12.20
2022-10-16T01:09:48.428Z,12.19
2022-10-16T01:15:15.830Z,12.15
2022-10-16T01:20:22.436Z,12.11
2022-10-16T01:25:38.200Z,12.09
2022-10-16T01:30:43.076Z,12.06
2022-10-16T01:35:53.239Z,12.01
2022-10-16T01:41:02.328Z,11.98
2022-10-16T01:46:04.917Z,11.97
2022-10-16T01:51:19.329Z,11.95
2022-10-16T01:56:23.756Z,11.93
2022-10-16T02:01:30.736Z,11.90
2022-10-16T02:06:33.130Z,11.87
2022-10-16T02:11:34.903Z,11.86
2022-10-16T02:16:43.049Z,11.87
2022-10-16T02:21:57.454Z,11.89
2022-10-16T02:27:06.755Z,11.90
2022-10-16T02:32:11.368Z,11.87
2022-10-16T02:37:13.731Z,11.82
2022-10-16T02:42:16.420Z,11.74
2022-10-16T02:47:18.345Z,11.70
2022-10-16T02:52:20.204Z,11.70
2022-10-16T02:57:22.196Z,11.73
2022-10-16T03:02:24.284Z,11.78
2022-10-16T03:07:26.697Z,11.85
2022-10-16T03:12:28.869Z,11.95
2022-10-16T03:17:32.530Z,12.06
2022-10-16T03:22:34.448Z,12.18
2022-10-16T03:27:36.540Z,12.29
2022-10-16T03:32:50.725Z,12.40
2022-10-16T03:37:53.048Z,12.48
2022-10-16T03:42:58.412Z,12.54
2022-10-16T03:48:00.292Z,12.57
2022-10-16T03:53:02.269Z,12.60
2022-10-16T03:58:04.383Z,12.62
2022-10-16T04:03:18.717Z,12.61
2022-10-16T04:08:20.600Z,12.60
2022-10-16T04:13:22.817Z,12.59
2022-10-16T04:18:24.832Z,12.56
2022-10-16T04:23:26.633Z,12.47
2022-10-16T04:28:28.928Z,12.36
2022-10-16T04:33:31.035Z,12.25
2022-10-16T04:38:33.023Z,12.13
2022-10-16T04:43:35.902Z,12.01
2022-10-16T04:48:37.809Z,11.94
2022-10-16T04:53:39.626Z,11.87
2022-10-16T04:58:47.685Z,11.80
2022-10-16T05:04:03.309Z,11.73
2022-10-16T05:09:06.154Z,11.68
2022-10-16T05:14:08.083Z,11.64
2022-10-16T05:24:31.852Z,11.59
2022-10-16T05:29:33.784Z,11.56
2022-10-16T05:34:35.760Z,11.54
2022-10-16T05:39:38.247Z,11.54
2022-10-16T05:44:40.328Z,11.55
2022-10-16T05:49:49.708Z,11.58
2022-10-16T05:54:58.072Z,11.64
2022-10-16T06:00:00.304Z,11.71
2022-10-16T06:05:02.154Z,11.79
2022-10-16T06:10:05.431Z,11.92
2022-10-16T06:15:07.986Z,12.09
2022-10-16T06:20:10.071Z,12.33
2022-10-16T06:25:11.822Z,12.62
2022-10-16T06:30:14.840Z,12.89
2022-10-16T06:35:41.714Z,13.19
2022-10-16T06:40:54.925Z,13.46
2022-10-16T06:46:02.413Z,13.68
2022-10-16T06:51:13.454Z,13.87
2022-10-16T06:56:21.363Z,14.11
2022-10-16T07:01:24.874Z,14.43
2022-10-16T07:06:28.163Z,14.80
2022-10-16T07:11:30.264Z,14.99
2022-10-16T07:16:33.900Z,15.14
2022-10-16T07:21:36.999Z,15.30
2022-10-16T07:26:40.314Z,15.59
2022-10-16T07:31:43.581Z,15.93
2022-10-16T07:36:45.568Z,16.25
2022-10-16T07:41:47.433Z,16.51
2022-10-16T07:47:03.103Z,16.69
2022-10-16T07:52:05.068Z,16.82
2022-10-16T07:57:06.820Z,16.96
2022-10-16T08:02:08.867Z,16.97
2022-10-16T08:07:10.774Z,17.09
2022-10-16T08:12:12.667Z,17.25
2022-10-16T08:17:15.646Z,17.51
2022-10-16T08:22:17.730Z,17.94
2022-10-16T08:27:19.581Z,18.43
2022-10-16T08:32:24.020Z,18.83
2022-10-16T08:37:33.542Z,19.03
2022-10-16T08:42:47.912Z,19.18
2022-10-16T08:48:01.955Z,19.19
2022-10-16T08:53:06.157Z,19.14
2022-10-16T08:58:28.830Z,19.34
2022-10-16T09:04:00.332Z,19.68
2022-10-16T09:09:26.890Z,20.01
2022-10-16T09:14:50.016Z,20.43
2022-10-16T09:20:11.585Z,20.60
2022-10-16T09:25:21.320Z,20.93
2022-10-16T09:30:24.172Z,20.93
2022-10-16T09:35:36.646Z,20.80
2022-10-16T09:40:42.740Z,20.86
2022-10-16T09:45:55.271Z,21.19
2022-10-16T09:51:03.336Z,21.43
2022-10-16T09:56:10.372Z,21.49
2022-10-16T10:01:16.597Z,21.54
2022-10-16T10:06:29.279Z,21.51
2022-10-16T10:11:50.645Z,21.38
2022-10-16T10:17:02.562Z,21.31
2022-10-16T10:22:19.762Z,21.17
2022-10-16T10:27:24.927Z,20.73
2022-10-16T10:32:39.058Z,20.44
2022-10-16T10:38:04.650Z,20.32
2022-10-16T10:43:26.396Z,20.35
2022-10-16T10:48:35.324Z,20.40
2022-10-16T10:53:43.251Z,20.39
2022-10-16T10:59:11.450Z,20.47
2022-10-16T11:04:40.349Z,20.53
2022-10-16T11:10:14.371Z,20.42
2022-10-16T11:15:30.027Z,20.50
2022-10-16T11:20:41.234Z,20.45
2022-10-16T11:25:45.378Z,20.29
2022-10-16T11:30:52.865Z,20.02
2022-10-16T11:36:00.318Z,19.79
2022-10-16T11:41:16.624Z,19.83
2022-10-16T11:46:23.083Z,19.98
2022-10-16T11:51:37.989Z,20.05
2022-10-16T11:56:42.812Z,20.25
2022-10-16T12:02:07.817Z,20.89
2022-10-16T12:07:25.728Z,21.67
2022-10-16T12:12:37.367Z,21.75
2022-10-16T12:17:39.862Z,21.51
2022-10-16T12:22:49.337Z,21.53
2022-10-16T12:28:19.390Z,21.50
2022-10-16T12:33:27.571Z,21.16
2022-10-16T12:38:55.709Z,20.91
2022-10-16T12:43:59.618Z,20.71
2022-10-16T12:49:25.589Z,20.47
2022-10-16T12:54:38.864Z,20.26
2022-10-16T12:59:49.717Z,20.13
2022-10-16T13:05:10.214Z,20.33
2022-10-16T13:10:36.873Z,20.53
2022-10-16T13:15:50.558Z,20.69
2022-10-16T13:21:07.840Z,20.88
2022-10-16T13:26:22.756Z,21.08
2022-10-16T13:31:26.242Z,21.11
2022-10-16T13:36:32.002Z,20.85
2022-10-16T13:41:33.865Z,20.64
2022-10-16T13:46:35.659Z,20.53
2022-10-16T13:51:37.714Z,20.63
2022-10-16T13:56:41.269Z,21.29
2022-10-16T14:01:55.288Z,21.75
2022-10-16T14:06:57.155Z,21.82
2022-10-16T14:12:12.560Z,21.97
2022-10-16T14:17:33.775Z,22.01
2022-10-16T14:22:47.672Z,22.03
2022-10-16T14:33:27.697Z,21.65
2022-10-16T14:38:30.338Z,21.49
2022-10-16T14:43:37.618Z,21.46
2022-10-16T14:48:43.947Z,21.53
2022-10-16T14:53:46.434Z,21.60
2022-10-16T14:58:50.770Z,21.54
2022-10-16T15:03:54.931Z,21.45
2022-10-16T15:08:56.998Z,21.10
2022-10-16T15:13:59.030Z,20.71
2022-10-16T15:19:07.215Z,20.34
2022-10-16T15:24:16.506Z,19.95
2022-10-16T15:29:21.284Z,19.52
2022-10-16T15:34:23.110Z,19.13
2022-10-16T15:39:24.957Z,18.77
2022-10-16T15:44:30.994Z,18.46
2022-10-16T15:49:32.993Z,18.18
2022-10-16T15:54:35.073Z,17.92
2022-10-16T15:59:36.865Z,17.67
2022-10-16T16:04:43.857Z,17.44
2022-10-16T16:09:46.682Z,17.23
2022-10-16T16:14:50.135Z,17.05
2022-10-16T16:19:52.345Z,16.89
2022-10-16T16:24:54.530Z,16.74
2022-10-16T16:29:57.022Z,16.59
2022-10-16T16:34:58.773Z,16.46
2022-10-16T16:40:00.681Z,16.29
2022-10-16T16:45:02.496Z,16.13
2022-10-16T16:50:06.003Z,16.00
2022-10-16T16:55:14.094Z,15.86
2022-10-16T17:00:16.164Z,15.76
2022-10-16T17:05:19.055Z,15.68
2022-10-16T17:10:21.093Z,15.60
2022-10-16T17:15:22.933Z,15.53
2022-10-16T17:20:39.792Z,15.46
2022-10-16T17:25:42.460Z,15.36
2022-10-16T17:30:44.720Z,15.33
2022-10-16T17:35:47.379Z,15.33
2022-10-16T17:40:49.190Z,15.33
2022-10-16T17:45:51.016Z,15.32
2022-10-16T17:50:52.954Z,15.29
2022-10-16T17:55:59.333Z,15.24
2022-10-16T18:01:02.158Z,15.24
2022-10-16T18:06:04.941Z,15.29
2022-10-16T18:11:06.723Z,15.39
2022-10-16T18:16:12.491Z,15.46
2022-10-16T18:21:18.176Z,15.52
2022-10-16T18:26:21.322Z,15.57
2022-10-16T18:31:26.297Z,15.58
2022-10-16T18:36:30.893Z,15.61
2022-10-16T18:41:32.842Z,15.58
2022-10-16T18:46:34.632Z,15.51
2022-10-16T18:51:40.239Z,15.44
2022-10-16T18:56:42.337Z,15.38
2022-10-16T19:01:44.449Z,15.32
2022-10-16T19:06:49.497Z,15.35
2022-10-16T19:16:54.330Z,15.46
2022-10-16T19:22:11.196Z,15.49
2022-10-16T19:27:16.709Z,15.54
2022-10-16T19:32:18.491Z,15.53
2022-10-16T19:37:25.744Z,15.45
2022-10-16T19:42:27.768Z,15.35
2022-10-16T19:47:31.302Z,15.27
2022-10-16T19:52:34.277Z,15.21
2022-10-16T19:57:40.504Z,15.13
2022-10-16T20:02:42.501Z,15.08
2022-10-16T20:07:44.266Z,15.00
2022-10-16T20:12:46.180Z,14.95
2022-10-16T20:17:48.314Z,14.84
2022-10-16T20:22:50.175Z,14.68
2022-10-16T20:27:52.081Z,14.50
2022-10-16T20:32:56.989Z,14.33
2022-10-16T20:38:18.781Z,14.19
2022-10-16T20:43:35.458Z,14.08
2022-10-16T20:48:41.171Z,13.95
2022-10-16T20:53:44.436Z,13.84
2022-10-16T20:58:46.622Z,13.75
2022-10-16T21:03:57.031Z,13.71
2022-10-16T21:09:03.398Z,13.66
2022-10-16T21:14:09.216Z,13.59
2022-10-16T21:19:11.128Z,13.50
2022-10-16T21:24:16.542Z,13.38
2022-10-16T21:29:20.193Z,13.23
2022-10-16T21:34:22.896Z,13.10
2022-10-16T21:39:24.934Z,13.00
2022-10-16T21:44:26.848Z,12.90
2022-10-16T21:49:28.782Z,12.81
2022-10-16T21:54:30.763Z,12.70
2022-10-16T21:59:32.713Z,12.62
2022-10-16T22:04:34.740Z,12.57
2022-10-16T22:09:36.557Z,12.59
2022-10-16T22:14:39.776Z,12.62
2022-10-16T22:19:41.606Z,12.64
2022-10-16T22:24:43.703Z,12.67
2022-10-16T22:29:45.622Z,12.69
2022-10-16T22:34:47.503Z,12.68
2022-10-16T22:40:09.736Z,12.66
2022-10-16T22:45:12.022Z,12.59
2022-10-16T22:50:14.155Z,12.52
2022-10-16T22:55:16.205Z,12.50
2022-10-16T23:00:19.765Z,12.42
2022-10-16T23:05:21.561Z,12.25
2022-10-16T23:10:27.552Z,12.08
2022-10-16T23:15:29.921Z,11.92
2022-10-16T23:20:31.814Z,11.79
2022-10-16T23:25:33.758Z,11.71
2022-10-16T23:30:40.716Z,11.66
2022-10-16T23:35:42.668Z,11.61
2022-10-16T23:40:44.597Z,11.57
2022-10-16T23:45:46.442Z,11.55
2022-10-16T23:50:48.509Z,11.53
2022-10-16T23:55:50.384Z,11.54
